createdAt,value
2022-08-02T00:01:22.086Z,94.10
2022-08-02T00:04:08.714Z,94.20
2022-08-02T00:06:54.533Z,94.20
2022-08-02T00:09:41.002Z,94.30
2022-08-02T00:12:28.277Z,94.50
2022-08-02T00:15:15.762Z,94.70
2022-08-02T00:18:02.815Z,94.80
2022-08-02T00:20:48.741Z,95.00
2022-08-02T00:24:03.255Z,95.20
2022-08-02T00:26:43.899Z,95.40
2022-08-02T00:29:31.101Z,95.50
2022-08-02T00:32:17.103Z,95.70
2022-08-02T00:35:04.006Z,95.80
2022-08-02T00:37:50.155Z,95.90
2022-08-02T00:40:36.275Z,96.00
2022-08-02T00:43:22.446Z,96.10
2022-08-02T00:46:08.806Z,96.10
2022-08-02T00:48:56.146Z,96.20
2022-08-02T00:51:42.670Z,96.30
2022-08-02T00:54:29.005Z,96.30
2022-08-02T00:57:15.226Z,96.40
2022-08-02T01:00:01.253Z,96.50
2022-08-02T01:02:47.580Z,96.60
2022-08-02T01:05:46.939Z,96.60
2022-08-02T01:08:40.086Z,96.70
2022-08-02T01:11:26.138Z,96.70
2022-08-02T01:14:14.730Z,96.80
2022-08-02T01:17:12.316Z,96.80
2022-08-02T01:20:25.270Z,96.90
2022-08-02T01:23:54.131Z,96.90
2022-08-02T01:26:49.088Z,97.00
2022-08-02T01:29:41.645Z,97.10
2022-08-02T01:32:37.072Z,97.20
2022-08-02T01:35:28.369Z,97.20
2022-08-02T01:38:38.279Z,97.30
2022-08-02T01:41:26.764Z,97.40
2022-08-02T01:44:14.945Z,97.50
2022-08-02T01:47:04.664Z,97.50
2022-08-02T01:49:54.653Z,97.60
2022-08-02T01:52:53.550Z,97.70
2022-08-02T01:55:57.047Z,97.80
2022-08-02T01:58:46.678Z,98.10
2022-08-02T02:01:34.905Z,97.90
2022-08-02T02:04:22.837Z,98.00
2022-08-02T02:07:10.287Z,98.10
2022-08-02T02:09:58.407Z,98.20
2022-08-02T02:12:51.197Z,98.30
2022-08-02T02:15:43.539Z,98.40
2022-08-02T02:18:30.699Z,98.40
2022-08-02T02:21:16.885Z,98.50
2022-08-02T02:24:03.811Z,98.60
2022-08-02T02:26:52.858Z,98.80
2022-08-02T02:29:44.885Z,98.90
2022-08-02T02:32:31.923Z,99.00
2022-08-02T02:35:19.262Z,99.20
2022-08-02T02:38:09.515Z,99.30
2022-08-02T02:41:00.635Z,99.50
2022-08-02T02:43:47.418Z,99.60
2022-08-02T02:46:34.994Z,99.70
2022-08-02T02:49:23.036Z,99.80
2022-08-02T02:52:10.639Z,99.90
2022-08-02T02:54:57.991Z,99.90
2022-08-02T02:57:45.058Z,99.90
2022-08-02T03:00:49.756Z,99.90
2022-08-02T03:03:37.316Z,99.90
2022-08-02T03:06:23.392Z,99.90
2022-08-02T03:09:10.451Z,99.90
2022-08-02T03:11:58.450Z,99.90
2022-08-02T03:14:44.528Z,99.90
2022-08-02T03:17:44.309Z,99.90
2022-08-02T03:20:30.242Z,99.90
2022-08-02T03:23:16.193Z,99.90
2022-08-02T03:26:02.569Z,99.90
2022-08-02T03:28:48.549Z,99.90
2022-08-02T03:31:35.640Z,99.90
2022-08-02T03:34:22.408Z,99.90
2022-08-02T03:37:09.226Z,99.90
2022-08-02T03:39:56.950Z,99.90
2022-08-02T03:42:43.908Z,99.90
2022-08-02T03:45:30.390Z,99.90
2022-08-02T03:48:33.658Z,99.90
2022-08-02T03:51:21.440Z,99.90
2022-08-02T03:54:07.569Z,99.90
2022-08-02T03:56:53.633Z,99.90
2022-08-02T03:59:45.122Z,99.90
2022-08-02T04:02:31.059Z,99.90
2022-08-02T04:05:17.434Z,99.90
2022-08-02T04:08:34.575Z,99.90
2022-08-02T04:11:28.351Z,99.90
2022-08-02T04:14:15.042Z,99.90
2022-08-02T04:17:05.875Z,99.90
2022-08-02T04:19:56.120Z,99.90
2022-08-02T04:23:03.428Z,99.90
2022-08-02T04:25:51.514Z,99.90
2022-08-02T04:28:38.405Z,99.90
2022-08-02T04:31:24.544Z,99.90
2022-08-02T04:34:15.080Z,99.90
2022-08-02T04:37:02.104Z,99.90
2022-08-02T04:39:51.310Z,99.90
2022-08-02T04:42:37.898Z,99.90
2022-08-02T04:45:25.593Z,99.90
2022-08-02T04:48:14.993Z,99.90
2022-08-02T04:51:01.435Z,99.90
2022-08-02T04:53:50.439Z,99.90
2022-08-02T04:56:40.076Z,99.90
2022-08-02T04:59:27.053Z,99.90
2022-08-02T05:02:13.521Z,99.90
2022-08-02T05:04:59.913Z,99.90
2022-08-02T05:07:46.003Z,99.90
2022-08-02T05:10:32.177Z,99.90
2022-08-02T05:13:18.899Z,99.90
2022-08-02T05:16:05.776Z,99.90
2022-08-02T05:18:53.243Z,99.90
2022-08-02T05:21:39.996Z,99.90
2022-08-02T05:24:26.495Z,99.90
2022-08-02T05:27:21.162Z,99.90
2022-08-02T05:30:08.762Z,99.90
2022-08-02T05:32:54.782Z,99.90
2022-08-02T05:35:41.450Z,99.90
2022-08-02T05:38:31.089Z,99.90
2022-08-02T05:41:19.416Z,99.90
2022-08-02T05:44:05.773Z,99.90
2022-08-02T05:46:53.936Z,99.90
2022-08-02T05:49:40.140Z,99.90
2022-08-02T05:52:42.939Z,99.90
2022-08-02T05:55:38.538Z,99.90
2022-08-02T05:58:35.411Z,99.90
2022-08-02T06:01:29.134Z,99.90
2022-08-02T06:04:20.740Z,99.90
2022-08-02T06:07:10.336Z,99.90
2022-08-02T06:09:59.735Z,99.90
2022-08-02T06:13:02.586Z,99.90
2022-08-02T06:15:53.458Z,99.90
2022-08-02T06:18:46.786Z,99.90
2022-08-02T06:22:33.375Z,99.90
2022-08-02T06:24:51.960Z,99.90
2022-08-02T06:27:40.040Z,99.90
2022-08-02T06:30:27.727Z,99.90
2022-08-02T06:33:14.033Z,99.90
2022-08-02T06:36:30.008Z,99.90
2022-08-02T06:39:31.759Z,99.90
2022-08-02T06:42:28.784Z,99.90
2022-08-02T06:45:16.943Z,99.90
2022-08-02T06:48:03.750Z,99.90
2022-08-02T06:50:49.899Z,99.90
2022-08-02T06:53:36.028Z,99.90
2022-08-02T06:56:22.712Z,99.90
2022-08-02T06:59:08.700Z,99.90
2022-08-02T07:01:55.262Z,99.90
2022-08-02T07:04:41.415Z,99.90
2022-08-02T07:07:28.076Z,99.90
2022-08-02T07:10:15.149Z,99.90
2022-08-02T07:13:01.297Z,99.90
2022-08-02T07:15:49.449Z,99.90
2022-08-02T07:18:36.113Z,99.90
2022-08-02T07:21:57.162Z,99.90
2022-08-02T07:24:28.360Z,99.90
2022-08-02T07:27:14.258Z,99.90
2022-08-02T07:30:00.618Z,99.90
2022-08-02T07:32:46.661Z,99.90
2022-08-02T07:35:35.775Z,99.90
2022-08-02T07:38:24.976Z,99.90
2022-08-02T07:41:12.012Z,99.90
2022-08-02T07:43:58.673Z,99.90
2022-08-02T07:46:45.410Z,99.90
2022-08-02T07:49:34.582Z,99.90
2022-08-02T07:52:24.241Z,99.90
2022-08-02T07:55:11.394Z,99.90
2022-08-02T07:58:00.712Z,99.90
2022-08-02T08:00:46.851Z,99.90
2022-08-02T08:03:35.916Z,99.90
2022-08-02T08:06:28.774Z,99.90
2022-08-02T08:09:15.229Z,99.90
2022-08-02T08:12:01.723Z,99.90
2022-08-02T08:14:47.951Z,99.90
2022-08-02T08:17:35.301Z,99.90
2022-08-02T08:20:21.520Z,99.90
2022-08-02T08:23:09.068Z,99.90
2022-08-02T08:25:55.625Z,99.90
2022-08-02T08:28:41.696Z,99.90
2022-08-02T08:31:28.178Z,99.90
2022-08-02T08:34:14.662Z,99.90
2022-08-02T08:37:02.413Z,99.90
2022-08-02T08:39:57.079Z,99.90
2022-08-02T08:42:44.910Z,99.90
2022-08-02T08:45:31.083Z,99.90
2022-08-02T08:48:25.683Z,99.90
2022-08-02T08:51:22.841Z,99.90
2022-08-02T08:54:12.670Z,99.90
2022-08-02T08:56:59.824Z,99.90
2022-08-02T08:59:49.611Z,99.90
2022-08-02T09:02:36.964Z,99.90
2022-08-02T09:05:23.571Z,99.90
2022-08-02T09:08:14.850Z,99.90
2022-08-02T09:11:16.348Z,99.90
2022-08-02T09:14:07.497Z,99.90
2022-08-02T09:16:54.342Z,99.90
2022-08-02T09:19:45.849Z,99.90
2022-08-02T09:22:32.585Z,99.90
2022-08-02T09:25:18.939Z,99.90
2022-08-02T09:28:06.123Z,99.90
2022-08-02T09:30:52.549Z,99.90
2022-08-02T09:33:41.381Z,99.90
2022-08-02T09:36:37.060Z,99.80
2022-08-02T09:39:23.864Z,99.90
2022-08-02T09:42:10.822Z,99.70
2022-08-02T09:45:01.918Z,99.50
2022-08-02T09:47:49.810Z,99.30
2022-08-02T09:50:41.077Z,99.30
2022-08-02T09:53:27.632Z,99.30
2022-08-02T09:56:35.161Z,99.40
2022-08-02T09:59:25.012Z,99.40
2022-08-02T10:02:16.867Z,99.60
2022-08-02T10:05:04.036Z,99.70
2022-08-02T10:07:50.191Z,99.60
2022-08-02T10:10:36.120Z,99.70
2022-08-02T10:13:22.327Z,99.70
2022-08-02T10:16:08.370Z,99.90
2022-08-02T10:18:56.736Z,99.70
2022-08-02T10:22:00.048Z,99.70
2022-08-02T10:24:48.489Z,99.40
2022-08-02T10:28:03.771Z,99.20
2022-08-02T10:30:48.298Z,99.30
2022-08-02T10:33:37.502Z,99.20
2022-08-02T10:36:27.348Z,99.00
2022-08-02T10:39:13.419Z,99.00
2022-08-02T10:41:59.346Z,98.70
2022-08-02T10:44:45.361Z,98.70
2022-08-02T10:47:31.201Z,98.60
2022-08-02T10:50:17.363Z,98.30
2022-08-02T10:53:30.394Z,98.20
2022-08-02T10:56:18.328Z,97.90
2022-08-02T10:59:29.269Z,97.80
2022-08-02T11:02:34.339Z,97.70
2022-08-02T11:05:42.684Z,97.70
2022-08-02T11:08:31.364Z,97.80
2022-08-02T11:11:19.820Z,97.50
2022-08-02T11:14:26.657Z,97.50
2022-08-02T11:17:17.956Z,97.50
2022-08-02T11:20:13.258Z,97.20
2022-08-02T11:23:44.506Z,97.20
2022-08-02T11:26:32.745Z,97.20
2022-08-02T11:29:21.037Z,97.20
2022-08-02T11:32:30.579Z,97.10
2022-08-02T11:35:17.085Z,97.10
2022-08-02T11:38:17.851Z,97.10
2022-08-02T11:41:09.926Z,97.00
2022-08-02T11:43:56.864Z,96.80
2022-08-02T11:46:43.779Z,96.50
2022-08-02T11:49:31.103Z,96.50
2022-08-02T11:52:17.512Z,96.60
2022-08-02T11:55:08.255Z,96.70
2022-08-02T11:58:05.048Z,96.80
2022-08-02T12:00:53.869Z,97.10
2022-08-02T12:03:40.348Z,97.30
2022-08-02T12:06:34.515Z,97.30
2022-08-02T12:09:22.806Z,97.30
2022-08-02T12:12:08.971Z,97.40
2022-08-02T12:14:55.070Z,97.40
2022-08-02T12:17:59.816Z,97.30
2022-08-02T12:20:46.371Z,97.30
2022-08-02T12:23:32.822Z,97.10
2022-08-02T12:26:19.256Z,96.90
2022-08-02T12:29:05.185Z,96.90
2022-08-02T12:31:56.366Z,96.70
2022-08-02T12:34:44.380Z,96.60
2022-08-02T12:37:30.957Z,96.60
2022-08-02T12:40:25.319Z,96.40
2022-08-02T12:43:22.672Z,96.30
2022-08-02T12:46:19.557Z,96.20
2022-08-02T12:49:18.728Z,96.30
2022-08-02T12:52:22.971Z,96.40
2022-08-02T12:55:25.868Z,96.20
2022-08-02T12:58:50.426Z,96.10
2022-08-02T13:01:37.269Z,95.90
2022-08-02T13:04:23.901Z,96.00
2022-08-02T13:07:13.158Z,96.00
2022-08-02T13:10:04.903Z,95.90
2022-08-02T13:12:53.432Z,95.80
2022-08-02T13:15:49.148Z,95.90
2022-08-02T13:18:36.835Z,96.10
2022-08-02T13:21:39.963Z,96.20
2022-08-02T13:24:39.674Z,96.30
2022-08-02T13:27:37.092Z,96.40
2022-08-02T13:30:24.002Z,96.50
2022-08-02T13:33:10.035Z,96.50
2022-08-02T13:35:56.018Z,96.40
2022-08-02T13:38:42.477Z,96.30
2022-08-02T13:41:28.438Z,96.30
2022-08-02T13:44:14.418Z,96.30
2022-08-02T13:47:01.628Z,96.00
2022-08-02T13:49:50.566Z,95.90
2022-08-02T13:52:37.870Z,95.60
2022-08-02T13:55:24.925Z,95.30
2022-08-02T13:58:11.939Z,95.30
2022-08-02T14:00:58.346Z,95.00
2022-08-02T14:04:07.742Z,94.90
2022-08-02T14:06:51.161Z,94.70
2022-08-02T14:09:37.968Z,94.50
2022-08-02T14:12:26.626Z,94.20
2022-08-02T14:15:13.288Z,94.10
2022-08-02T14:18:00.178Z,93.70
2022-08-02T14:20:46.331Z,93.50
2022-08-02T14:23:50.254Z,93.40
2022-08-02T14:26:38.168Z,93.40
2022-08-02T14:29:24.464Z,93.50
2022-08-02T14:32:11.198Z,93.30
2022-08-02T14:34:57.766Z,93.30
2022-08-02T14:37:43.733Z,93.20
2022-08-02T14:40:31.778Z,93.10
2022-08-02T14:43:36.870Z,93.10
2022-08-02T14:46:22.852Z,93.00
2022-08-02T14:49:10.558Z,93.10
2022-08-02T14:51:57.514Z,93.00
2022-08-02T14:54:44.437Z,93.20
2022-08-02T14:57:33.392Z,93.10
2022-08-02T15:00:19.556Z,93.40
2022-08-02T15:03:05.568Z,93.40
2022-08-02T15:05:55.610Z,93.40
2022-08-02T15:08:42.028Z,93.10
2022-08-02T15:11:28.948Z,93.40
2022-08-02T15:14:21.921Z,93.20
2022-08-02T15:17:13.023Z,93.10
2022-08-02T15:20:05.742Z,93.10
2022-08-02T15:23:07.844Z,93.10
2022-08-02T15:25:55.397Z,93.00
2022-08-02T15:28:45.198Z,92.90
2022-08-02T15:31:33.518Z,92.90
2022-08-02T15:34:20.153Z,92.60
2022-08-02T15:37:07.043Z,92.20
2022-08-02T15:39:53.425Z,92.00
2022-08-02T15:42:39.597Z,91.10
2022-08-02T15:45:27.710Z,90.00
2022-08-02T15:48:13.935Z,87.80
2022-08-02T15:51:00.149Z,86.00
2022-08-02T15:53:46.228Z,85.60
2022-08-02T15:56:36.003Z,84.50
2022-08-02T15:59:22.156Z,82.50
2022-08-02T16:02:08.184Z,81.20
2022-08-02T16:04:59.803Z,80.50
2022-08-02T16:07:46.771Z,80.80
2022-08-02T16:10:33.418Z,81.20
2022-08-02T16:13:41.256Z,80.80
2022-08-02T16:16:40.335Z,80.20
2022-08-02T16:19:46.061Z,80.70
2022-08-02T16:22:33.301Z,81.80
2022-08-02T16:25:19.381Z,82.80
2022-08-02T16:28:07.592Z,82.50
2022-08-02T16:31:10.522Z,81.60
2022-08-02T16:33:58.456Z,81.00
2022-08-02T16:36:45.312Z,81.30
2022-08-02T16:39:31.442Z,82.30
2022-08-02T16:42:25.057Z,83.80
2022-08-02T16:45:14.127Z,85.40
2022-08-02T16:48:03.641Z,87.10
2022-08-02T16:50:52.444Z,88.10
2022-08-02T16:54:00.573Z,86.60
2022-08-02T16:56:48.225Z,85.00
2022-08-02T16:59:42.028Z,82.30
2022-08-02T17:02:29.839Z,80.40
2022-08-02T17:05:16.038Z,80.10
2022-08-02T17:08:07.671Z,80.10
2022-08-02T17:11:08.636Z,79.90
2022-08-02T17:13:54.569Z,79.50
2022-08-02T17:16:40.604Z,78.50
2022-08-02T17:19:38.220Z,78.10
2022-08-02T17:22:24.892Z,77.40
2022-08-02T17:25:16.033Z,76.50
2022-08-02T17:28:02.810Z,76.00
2022-08-02T17:30:51.783Z,76.70
2022-08-02T17:33:40.878Z,78.30
2022-08-02T17:36:27.884Z,80.20
2022-08-02T17:39:14.147Z,81.50
2022-08-02T17:42:00.744Z,81.60
2022-08-02T17:44:49.188Z,81.10
2022-08-02T17:47:42.237Z,80.50
2022-08-02T17:50:28.862Z,79.80
2022-08-02T17:53:15.221Z,79.30
2022-08-02T17:56:01.350Z,79.10
2022-08-02T17:58:53.818Z,79.50
2022-08-02T18:01:52.569Z,80.60
2022-08-02T18:04:40.047Z,81.80
2022-08-02T18:07:26.516Z,83.30
2022-08-02T18:10:32.959Z,84.70
2022-08-02T18:13:18.844Z,86.20
2022-08-02T18:16:05.953Z,87.60
2022-08-02T18:19:16.734Z,88.90
2022-08-02T18:22:03.832Z,90.00
2022-08-02T18:24:53.156Z,90.50
2022-08-02T18:27:39.331Z,90.80
2022-08-02T18:30:28.256Z,91.20
2022-08-02T18:33:56.812Z,91.50
2022-08-02T18:36:27.606Z,92.00
2022-08-02T18:39:14.575Z,92.10
2022-08-02T18:42:02.010Z,92.40
2022-08-02T18:44:48.765Z,92.70
2022-08-02T18:47:34.752Z,93.00
2022-08-02T18:50:21.717Z,93.30
2022-08-02T18:53:11.382Z,93.50
2022-08-02T18:56:03.897Z,93.70
2022-08-02T18:58:51.171Z,93.90
2022-08-02T19:01:45.050Z,94.00
2022-08-02T19:04:46.941Z,94.10
2022-08-02T19:07:50.589Z,94.20
2022-08-02T19:10:39.931Z,94.40
2022-08-02T19:13:42.283Z,94.60
2022-08-02T19:16:36.850Z,94.80
2022-08-02T19:19:29.103Z,95.00
2022-08-02T19:22:20.029Z,95.10
2022-08-02T19:25:07.700Z,95.30
2022-08-02T19:28:04.017Z,95.50
2022-08-02T19:30:50.572Z,95.70
2022-08-02T19:34:05.870Z,95.90
2022-08-02T19:36:44.197Z,96.20
2022-08-02T19:39:30.452Z,96.40
2022-08-02T19:42:17.166Z,96.70
2022-08-02T19:45:05.806Z,96.90
2022-08-02T19:47:54.347Z,97.10
2022-08-02T19:50:44.058Z,97.30
2022-08-02T19:53:48.117Z,97.60
2022-08-02T19:56:35.414Z,97.80
2022-08-02T19:59:25.027Z,98.10
2022-08-02T20:02:18.246Z,98.30
2022-08-02T20:05:08.080Z,98.50
2022-08-02T20:08:03.493Z,98.70
2022-08-02T20:10:51.490Z,99.00
2022-08-02T20:16:46.698Z,99.50
2022-08-02T20:19:41.945Z,99.70
2022-08-02T20:22:33.033Z,99.90
2022-08-02T20:25:19.150Z,99.90
2022-08-02T20:28:06.159Z,99.90
2022-08-02T20:30:55.012Z,99.90
2022-08-02T20:33:56.060Z,99.90
2022-08-02T20:36:43.178Z,99.90
2022-08-02T20:39:43.052Z,99.90
2022-08-02T20:42:30.504Z,99.90
2022-08-02T20:45:19.098Z,99.90
2022-08-02T20:48:05.657Z,99.90
2022-08-02T20:54:04.035Z,99.90
2022-08-02T20:56:50.793Z,99.90
2022-08-02T20:59:38.579Z,99.90
2022-08-02T21:02:25.522Z,99.90
2022-08-02T21:05:15.354Z,99.90
2022-08-02T21:08:07.931Z,99.90
2022-08-02T21:11:01.420Z,99.90
2022-08-02T21:14:08.499Z,99.90
2022-08-02T21:16:55.582Z,99.90
2022-08-02T21:19:44.202Z,99.90
2022-08-02T21:22:31.457Z,99.90
2022-08-02T21:25:50.760Z,99.90
2022-08-02T21:28:43.490Z,99.90
2022-08-02T21:31:35.718Z,99.90
2022-08-02T21:34:27.201Z,99.90
2022-08-02T21:37:16.803Z,99.90
2022-08-02T21:40:06.442Z,99.90
2022-08-02T21:42:56.425Z,99.90
2022-08-02T21:45:55.643Z,99.90
2022-08-02T21:48:42.352Z,99.90
2022-08-02T21:51:29.194Z,99.90
2022-08-02T21:54:21.766Z,99.90
2022-08-02T21:57:15.763Z,99.90
2022-08-02T22:00:39.342Z,99.90
2022-08-02T22:03:30.456Z,99.90
2022-08-02T22:06:20.040Z,99.90
2022-08-02T22:09:17.262Z,99.90
2022-08-02T22:12:18.023Z,99.90
2022-08-02T22:15:10.791Z,99.90
2022-08-02T22:18:00.003Z,99.90
2022-08-02T22:20:46.544Z,99.90
2022-08-02T22:23:50.008Z,99.90
2022-08-02T22:26:48.227Z,99.90
2022-08-02T22:29:34.349Z,99.90
2022-08-02T22:32:40.061Z,99.90
2022-08-02T22:35:26.373Z,99.90
2022-08-02T22:38:18.592Z,99.90
2022-08-02T22:41:05.343Z,99.90
2022-08-02T22:43:55.579Z,99.90
2022-08-02T22:46:42.000Z,99.90
2022-08-02T22:49:39.004Z,99.90
2022-08-02T22:52:34.781Z,99.90
2022-08-02T22:55:22.856Z,99.90
2022-08-02T22:58:11.643Z,99.90
2022-08-02T22:58:54.953Z,99.20
2022-08-02T22:59:05.637Z,99.90
2022-08-02T23:01:00.206Z,99.90
2022-08-02T23:03:46.691Z,99.90
2022-08-02T23:06:33.133Z,99.90
2022-08-02T23:09:19.143Z,99.90
2022-08-02T23:12:05.386Z,99.90
2022-08-02T23:14:52.428Z,99.90
2022-08-02T23:17:56.808Z,99.90
2022-08-02T23:20:43.404Z,99.90
2022-08-02T23:23:30.043Z,99.90
2022-08-02T23:26:16.231Z,99.90
2022-08-02T23:29:02.756Z,99.90
2022-08-02T23:31:51.705Z,99.90
2022-08-02T23:34:39.743Z,99.90
2022-08-02T23:37:26.421Z,99.90
2022-08-02T23:40:12.668Z,99.90
2022-08-02T23:42:59.087Z,99.90
2022-08-02T23:45:46.162Z,99.90
2022-08-02T23:48:32.641Z,99.90
2022-08-02T23:51:22.239Z,99.90
2022-08-02T23:54:09.472Z,99.90
2022-08-02T23:56:55.846Z,99.90
2022-08-02T23:59:46.464Z,99.90
